createdAt,value
2018-05-29T00:07:09.037Z,22.60
2018-05-29T00:09:41.544Z,22.60
2018-05-29T00:12:13.691Z,22.50
2018-05-29T00:14:43.014Z,22.40
2018-05-29T00:17:14.454Z,22.30
2018-05-29T00:19:47.518Z,22.20
2018-05-29T00:22:17.613Z,22.20
2018-05-29T00:25:03.656Z,22.20
2018-05-29T00:27:33.904Z,22.10
2018-05-29T00:30:03.332Z,22.00
2018-05-29T00:33:21.334Z,21.80
2018-05-29T00:35:51.564Z,21.80
2018-05-29T00:38:24.021Z,21.90
2018-05-29T00:41:44.045Z,21.90
2018-05-29T00:46:48.046Z,21.90
2018-05-29T00:49:20.333Z,21.90
2018-05-29T00:52:04.897Z,21.90
2018-05-29T00:54:35.303Z,22.00
2018-05-29T00:57:05.797Z,22.10
2018-05-29T00:59:48.908Z,22.10
2018-05-29T01:02:22.234Z,21.80
2018-05-29T01:04:51.797Z,21.70
2018-05-29T01:07:27.056Z,21.80
2018-05-29T01:09:59.031Z,21.70
2018-05-29T01:12:29.344Z,21.60
2018-05-29T01:15:01.768Z,21.60
2018-05-29T01:18:00.640Z,21.60
2018-05-29T01:20:34.344Z,21.60
2018-05-29T01:23:20.646Z,21.50
2018-05-29T01:29:06.212Z,21.20
2018-05-29T01:31:36.233Z,21.00
2018-05-29T01:34:07.351Z,20.90
2018-05-29T01:36:42.163Z,20.90
2018-05-29T01:39:11.935Z,20.80
2018-05-29T01:41:50.004Z,20.80
2018-05-29T01:44:24.623Z,20.70
2018-05-29T01:56:02.087Z,20.60
2018-05-29T01:58:33.458Z,20.60
2018-05-29T02:03:46.774Z,20.40
2018-05-29T02:06:16.772Z,20.40
2018-05-29T02:11:22.559Z,20.60
2018-05-29T02:13:51.707Z,20.60
2018-05-29T02:16:22.138Z,20.70
2018-05-29T02:18:52.169Z,20.70
2018-05-29T02:24:09.227Z,20.60
2018-05-29T02:26:38.610Z,20.50
2018-05-29T02:29:07.808Z,20.60
2018-05-29T02:31:36.944Z,20.50
2018-05-29T02:34:10.829Z,20.50
2018-05-29T02:36:46.377Z,20.50
2018-05-29T02:39:19.184Z,20.30
2018-05-29T02:41:50.004Z,20.30
2018-05-29T02:44:19.227Z,20.20
2018-05-29T02:46:50.899Z,20.10
2018-05-29T02:49:21.441Z,20.30
2018-05-29T02:51:51.084Z,20.40
2018-05-29T02:54:20.173Z,20.40
2018-05-29T02:56:50.163Z,20.30
2018-05-29T02:59:20.249Z,20.30
2018-05-29T03:01:50.187Z,20.30
2018-05-29T03:04:19.370Z,20.30
2018-05-29T03:06:48.444Z,20.30
2018-05-29T03:09:19.178Z,20.20
2018-05-29T03:11:48.648Z,20.20
2018-05-29T03:14:18.132Z,20.10
2018-05-29T03:16:50.716Z,20.10
2018-05-29T03:22:06.768Z,20.10
2018-05-29T03:24:38.021Z,20.00
2018-05-29T03:27:50.520Z,20.10
2018-05-29T03:30:20.122Z,20.00
2018-05-29T03:32:50.265Z,19.90
2018-05-29T03:35:21.734Z,19.90
2018-05-29T03:37:52.543Z,19.90
2018-05-29T03:40:21.688Z,19.90
2018-05-29T03:42:50.944Z,19.90
2018-05-29T03:45:20.059Z,19.90
2018-05-29T03:47:50.039Z,19.90
2018-05-29T03:50:21.435Z,19.90
2018-05-29T03:52:55.500Z,20.00
2018-05-29T03:55:25.343Z,20.10
2018-05-29T03:57:54.600Z,20.00
2018-05-29T04:00:30.011Z,20.10
2018-05-29T04:03:03.215Z,20.10
2018-05-29T04:05:32.280Z,20.10
2018-05-29T04:08:06.932Z,20.00
2018-05-29T04:10:36.259Z,19.90
2018-05-29T04:13:06.121Z,19.90
2018-05-29T04:15:35.292Z,19.80
2018-05-29T04:18:05.897Z,19.80
2018-05-29T04:20:50.949Z,19.90
2018-05-29T04:23:48.684Z,19.80
2018-05-29T04:26:17.913Z,19.80
2018-05-29T04:28:49.007Z,19.70
2018-05-29T04:31:22.838Z,19.70
2018-05-29T04:33:53.061Z,19.60
2018-05-29T04:36:26.829Z,19.50
2018-05-29T04:39:00.559Z,19.40
2018-05-29T04:41:31.484Z,19.40
2018-05-29T04:44:00.685Z,19.40
2018-05-29T04:46:30.920Z,19.50
2018-05-29T04:49:01.648Z,19.60
2018-05-29T04:51:38.875Z,19.60
2018-05-29T04:54:09.670Z,19.60
2018-05-29T04:59:24.257Z,19.60
2018-05-29T05:02:05.832Z,19.60
2018-05-29T05:04:35.230Z,19.70
2018-05-29T05:07:04.292Z,19.60
2018-05-29T05:09:34.960Z,19.60
2018-05-29T05:12:04.138Z,19.70
2018-05-29T05:14:39.711Z,19.80
2018-05-29T05:17:12.784Z,19.70
2018-05-29T05:19:43.735Z,19.80
2018-05-29T05:22:13.062Z,19.80
2018-05-29T05:24:52.736Z,19.80
2018-05-29T05:27:21.953Z,19.70
2018-05-29T05:29:51.038Z,19.60
2018-05-29T05:32:20.512Z,19.50
2018-05-29T05:34:54.421Z,19.30
2018-05-29T05:37:27.872Z,19.20
2018-05-29T05:40:05.311Z,19.10
2018-05-29T05:42:44.307Z,19.20
2018-05-29T05:45:15.437Z,19.20
2018-05-29T05:47:45.129Z,19.20
2018-05-29T05:50:18.095Z,19.20
2018-05-29T05:52:53.504Z,19.20
2018-05-29T05:55:26.474Z,19.20
2018-05-29T05:58:01.789Z,19.10
2018-05-29T06:00:31.631Z,19.20
2018-05-29T06:03:14.211Z,19.20
2018-05-29T06:05:52.616Z,19.20
2018-05-29T06:08:22.009Z,19.20
2018-05-29T06:10:51.271Z,19.20
2018-05-29T06:13:20.410Z,19.10
2018-05-29T06:15:51.876Z,19.00
2018-05-29T06:18:22.177Z,18.90
2018-05-29T06:20:51.289Z,18.80
2018-05-29T06:23:20.511Z,18.80
2018-05-29T06:25:50.815Z,18.70
2018-05-29T06:28:20.348Z,18.70
2018-05-29T06:30:53.852Z,18.70
2018-05-29T06:33:23.799Z,18.70
2018-05-29T06:35:52.986Z,18.70
2018-05-29T06:38:22.219Z,18.70
2018-05-29T06:40:51.289Z,18.70
2018-05-29T06:43:20.511Z,18.80
2018-05-29T06:45:51.104Z,18.90
2018-05-29T06:48:28.203Z,18.90
2018-05-29T06:50:58.357Z,18.90
2018-05-29T06:53:28.887Z,18.90
2018-05-29T06:55:59.451Z,19.00
2018-05-29T06:58:28.612Z,19.00
2018-05-29T07:00:58.785Z,19.20
2018-05-29T07:03:27.876Z,19.20
2018-05-29T07:05:57.097Z,19.30
2018-05-29T07:08:26.603Z,19.30
2018-05-29T07:10:55.800Z,19.30
2018-05-29T07:13:26.571Z,19.40
2018-05-29T07:15:55.859Z,19.30
2018-05-29T07:18:25.101Z,19.30
2018-05-29T07:20:54.300Z,19.20
2018-05-29T07:23:23.382Z,19.10
2018-05-29T07:25:53.838Z,19.10
2018-05-29T07:28:23.150Z,19.10
2018-05-29T07:30:52.375Z,19.20
2018-05-29T07:33:21.819Z,19.30
2018-05-29T07:35:52.366Z,19.30
2018-05-29T07:38:21.691Z,19.40
2018-05-29T07:40:51.714Z,19.30
2018-05-29T07:43:25.547Z,19.20
2018-05-29T07:48:57.353Z,19.20
2018-05-29T07:51:26.553Z,19.20
2018-05-29T07:53:57.909Z,19.20
2018-05-29T07:56:27.893Z,19.30
2018-05-29T07:59:07.538Z,19.10
2018-05-29T08:01:36.783Z,19.20
2018-05-29T08:04:05.891Z,19.20
2018-05-29T08:06:34.938Z,19.10
2018-05-29T08:09:05.102Z,19.00
2018-05-29T08:11:34.352Z,19.00
2018-05-29T08:14:04.474Z,18.90
2018-05-29T08:16:33.636Z,18.80
2018-05-29T08:19:02.796Z,18.80
2018-05-29T08:21:32.089Z,18.80
2018-05-29T08:24:11.400Z,18.70
2018-05-29T08:26:41.602Z,18.70
2018-05-29T08:29:12.561Z,18.70
2018-05-29T08:31:42.410Z,18.60
2018-05-29T08:34:12.608Z,18.50
2018-05-29T08:36:41.997Z,18.50
2018-05-29T08:39:11.307Z,18.50
2018-05-29T08:41:48.681Z,18.50
2018-05-29T08:44:17.842Z,18.50
2018-05-29T08:46:47.428Z,18.50
2018-05-29T08:49:17.290Z,18.50
2018-05-29T08:51:53.796Z,18.50
2018-05-29T08:54:22.916Z,18.50
2018-05-29T08:56:52.623Z,18.50
2018-05-29T08:59:22.067Z,18.50
2018-05-29T09:01:52.287Z,18.60
2018-05-29T09:04:21.648Z,18.50
2018-05-29T09:06:56.182Z,18.50
2018-05-29T09:09:27.965Z,18.40
2018-05-29T09:11:57.186Z,18.30
2018-05-29T09:14:27.523Z,18.20
2018-05-29T09:17:12.159Z,18.20
2018-05-29T09:19:43.219Z,18.20
2018-05-29T09:22:17.612Z,18.20
2018-05-29T09:24:49.647Z,18.30
2018-05-29T09:27:18.889Z,18.40
2018-05-29T09:29:48.104Z,18.50
2018-05-29T09:32:18.110Z,18.60
2018-05-29T09:34:47.201Z,18.60
2018-05-29T09:37:16.313Z,18.70
2018-05-29T09:39:45.406Z,18.70
2018-05-29T09:42:14.814Z,18.70
2018-05-29T09:44:44.111Z,18.70
2018-05-29T09:47:13.485Z,18.60
2018-05-29T09:49:42.635Z,18.70
2018-05-29T09:52:11.790Z,18.70
2018-05-29T09:54:40.987Z,18.70
2018-05-29T09:57:11.628Z,18.70
2018-05-29T09:59:41.580Z,18.70
2018-05-29T10:02:10.952Z,18.80
2018-05-29T10:04:40.127Z,18.80
2018-05-29T10:07:09.538Z,18.80
2018-05-29T10:09:39.569Z,18.80
2018-05-29T10:12:09.665Z,18.80
2018-05-29T10:14:38.825Z,18.80
2018-05-29T10:17:08.765Z,18.90
2018-05-29T10:19:37.941Z,18.90
2018-05-29T10:22:07.122Z,18.90
2018-05-29T10:24:38.728Z,18.90
2018-05-29T10:27:08.640Z,18.90
2018-05-29T10:29:37.843Z,18.90
2018-05-29T10:32:07.037Z,19.00
2018-05-29T10:34:36.176Z,19.00
2018-05-29T10:37:06.122Z,18.90
2018-05-29T10:39:37.344Z,18.90
2018-05-29T10:42:06.570Z,18.90
2018-05-29T10:44:39.620Z,18.90
2018-05-29T10:47:11.413Z,18.90
2018-05-29T10:49:45.031Z,18.90
2018-05-29T10:52:14.453Z,18.90
2018-05-29T10:54:43.751Z,18.90
2018-05-29T10:57:33.890Z,19.00
2018-05-29T11:00:10.012Z,19.00
2018-05-29T11:02:39.185Z,18.90
2018-05-29T11:05:39.465Z,19.00
2018-05-29T11:08:10.804Z,18.90
2018-05-29T11:10:41.423Z,18.70
2018-05-29T11:13:15.701Z,18.70
2018-05-29T11:15:45.010Z,18.70
2018-05-29T11:18:15.715Z,18.60
2018-05-29T11:20:45.518Z,18.60
2018-05-29T11:23:18.976Z,18.60
2018-05-29T11:26:16.128Z,18.60
2018-05-29T11:28:45.349Z,18.60
2018-05-29T11:31:16.287Z,18.50
2018-05-29T11:33:51.515Z,18.40
2018-05-29T11:36:20.802Z,18.40
2018-05-29T11:38:50.189Z,18.40
2018-05-29T11:41:19.498Z,18.30
2018-05-29T11:43:52.749Z,18.30
2018-05-29T11:46:26.651Z,18.20
2018-05-29T11:54:51.081Z,18.10
2018-05-29T11:57:23.108Z,18.00
2018-05-29T11:59:52.466Z,17.90
2018-05-29T12:02:21.856Z,17.80
2018-05-29T12:04:53.964Z,17.90
2018-05-29T12:07:26.169Z,17.90
2018-05-29T12:12:39.821Z,18.00
2018-05-29T12:24:33.636Z,18.50
2018-05-29T12:27:07.646Z,18.80
2018-05-29T12:29:39.598Z,19.00
2018-05-29T12:32:11.535Z,19.10
2018-05-29T12:37:27.700Z,19.30
2018-05-29T12:40:00.043Z,19.40
2018-05-29T12:42:32.522Z,19.40
2018-05-29T12:48:23.082Z,19.50
2018-05-29T12:53:56.935Z,19.50
2018-05-29T12:56:30.113Z,19.50
2018-05-29T12:59:02.318Z,19.50
2018-05-29T13:01:33.882Z,19.50
2018-05-29T13:10:35.191Z,19.60
2018-05-29T13:13:05.252Z,19.50
2018-05-29T13:50:11.841Z,20.90
2018-05-29T13:52:42.179Z,20.90
2018-05-29T13:55:24.024Z,21.10
2018-05-29T13:57:55.356Z,21.40
2018-05-29T14:00:24.852Z,21.50
2018-05-29T14:03:01.490Z,21.90
2018-05-29T14:05:31.146Z,22.30
2018-05-29T14:08:02.411Z,22.30
2018-05-29T14:13:50.457Z,22.00
2018-05-29T14:23:03.711Z,22.30
2018-05-29T14:28:16.657Z,22.50
2018-05-29T14:34:14.982Z,23.00
2018-05-29T14:36:45.386Z,23.00
2018-05-29T14:39:16.980Z,23.30
2018-05-29T14:41:46.474Z,24.00
2018-05-29T14:44:15.665Z,24.60
2018-05-29T14:46:45.032Z,24.90
2018-05-29T14:49:14.621Z,25.00
2018-05-29T14:51:48.695Z,25.90
2018-05-29T14:54:18.023Z,25.90
2018-05-29T14:56:50.079Z,26.90
2018-05-29T14:59:19.422Z,26.80
2018-05-29T15:01:48.638Z,27.60
2018-05-29T15:04:19.414Z,27.40
2018-05-29T15:06:48.735Z,27.20
2018-05-29T15:09:26.075Z,27.40
2018-05-29T15:11:55.309Z,27.40
2018-05-29T15:14:24.572Z,27.80
2018-05-29T15:16:54.988Z,27.80
2018-05-29T15:19:24.396Z,28.50
2018-05-29T15:21:53.593Z,28.70
2018-05-29T15:24:23.222Z,28.70
2018-05-29T15:26:53.205Z,27.40
2018-05-29T15:29:22.889Z,26.70
2018-05-29T15:31:52.357Z,27.20
2018-05-29T15:34:21.895Z,27.90
2018-05-29T15:36:51.043Z,27.90
2018-05-29T15:39:26.971Z,28.10
2018-05-29T15:41:59.524Z,28.90
2018-05-29T15:44:29.133Z,28.90
2018-05-29T15:46:58.512Z,27.90
2018-05-29T15:49:28.596Z,26.50
2018-05-29T15:52:02.477Z,26.00
2018-05-29T15:54:32.730Z,26.10
2018-05-29T15:57:02.071Z,26.10
2018-05-29T15:59:34.364Z,26.40
2018-05-29T16:02:07.052Z,27.60
2018-05-29T16:04:47.753Z,27.50
2018-05-29T16:07:17.082Z,27.30
2018-05-29T16:09:51.113Z,26.70
2018-05-29T16:12:21.797Z,26.00
2018-05-29T16:14:51.470Z,26.60
2018-05-29T16:17:23.994Z,26.70
2018-05-29T16:19:53.404Z,27.30
2018-05-29T16:22:25.185Z,27.50
2018-05-29T16:28:19.177Z,26.70
2018-05-29T16:30:48.454Z,26.80
2018-05-29T16:33:19.035Z,26.80
2018-05-29T16:35:49.357Z,26.40
2018-05-29T16:38:18.649Z,26.40
2018-05-29T16:40:48.998Z,26.00
2018-05-29T16:43:18.977Z,25.90
2018-05-29T16:45:48.757Z,26.20
2018-05-29T16:48:20.363Z,27.50
2018-05-29T16:50:50.327Z,29.30
2018-05-29T16:53:22.011Z,29.30
2018-05-29T16:55:51.295Z,30.40
2018-05-29T16:58:21.587Z,31.70
2018-05-29T17:00:50.832Z,32.60
2018-05-29T17:03:20.110Z,33.30
2018-05-29T17:05:50.327Z,33.30
2018-05-29T17:08:19.564Z,32.80
2018-05-29T17:10:50.229Z,32.60
2018-05-29T17:13:20.447Z,32.40
2018-05-29T17:15:51.393Z,33.20
2018-05-29T17:18:22.132Z,33.40
2018-05-29T17:20:52.282Z,33.40
2018-05-29T17:23:21.867Z,33.90
2018-05-29T17:25:51.769Z,33.30
2018-05-29T17:28:22.463Z,33.00
2018-05-29T17:30:51.571Z,32.90
2018-05-29T17:33:20.898Z,32.50
2018-05-29T17:35:49.963Z,32.50
2018-05-29T17:38:19.327Z,32.10
2018-05-29T17:40:48.674Z,32.40
2018-05-29T17:43:17.754Z,31.40
2018-05-29T17:45:47.706Z,31.70
2018-05-29T17:48:16.914Z,32.00
2018-05-29T17:50:47.194Z,32.80
2018-05-29T17:53:18.381Z,32.10
2018-05-29T17:55:47.860Z,32.60
2018-05-29T17:58:16.971Z,32.50
2018-05-29T18:00:46.383Z,31.40
2018-05-29T18:03:15.604Z,30.80
2018-05-29T18:05:44.872Z,30.90
2018-05-29T18:08:15.405Z,31.50
2018-05-29T18:10:44.788Z,32.20
2018-05-29T18:13:13.964Z,32.50
2018-05-29T18:15:43.815Z,32.50
2018-05-29T18:18:14.957Z,32.50
2018-05-29T18:20:44.743Z,32.40
2018-05-29T18:23:16.122Z,31.30
2018-05-29T18:25:46.405Z,30.70
2018-05-29T18:28:17.936Z,30.70
2018-05-29T18:30:47.144Z,30.70
2018-05-29T18:33:17.411Z,31.00
2018-05-29T18:35:47.771Z,31.60
2018-05-29T18:38:17.953Z,32.00
2018-05-29T18:40:47.075Z,31.90
2018-05-29T18:43:16.140Z,31.90
2018-05-29T18:45:46.247Z,30.20
2018-05-29T18:48:17.513Z,30.70
2018-05-29T18:50:48.679Z,31.10
2018-05-29T18:53:18.045Z,31.50
2018-05-29T18:55:47.461Z,31.60
2018-05-29T18:58:16.578Z,30.80
2018-05-29T19:00:48.184Z,30.90
2018-05-29T19:03:18.569Z,30.60
2018-05-29T19:05:47.899Z,30.50
2018-05-29T19:08:18.553Z,30.80
2018-05-29T19:10:48.054Z,30.80
2018-05-29T19:13:20.288Z,31.50
2018-05-29T19:15:49.928Z,31.40
2018-05-29T19:18:19.941Z,31.90
2018-05-29T19:20:50.097Z,31.80
2018-05-29T19:23:22.330Z,31.70
2018-05-29T19:25:53.507Z,32.00
2018-05-29T19:28:27.183Z,31.90
2018-05-29T19:33:32.782Z,31.20
2018-05-29T19:36:03.368Z,31.10
2018-05-29T19:38:36.413Z,31.30
2018-05-29T19:41:07.469Z,31.10
2018-05-29T19:43:36.872Z,31.50
2018-05-29T19:46:07.655Z,31.80
2018-05-29T19:48:39.150Z,32.50
2018-05-29T19:51:11.986Z,32.50
2018-05-29T19:53:41.903Z,32.10
2018-05-29T19:56:14.373Z,31.70
2018-05-29T19:58:43.576Z,31.70
2018-05-29T20:01:12.717Z,31.00
2018-05-29T20:03:42.193Z,31.20
2018-05-29T20:06:14.335Z,31.20
2018-05-29T20:08:45.646Z,31.20
2018-05-29T20:11:17.139Z,31.20
2018-05-29T20:13:46.365Z,31.20
2018-05-29T20:16:19.956Z,30.60
2018-05-29T20:18:49.563Z,30.50
2018-05-29T20:21:18.810Z,30.20
2018-05-29T20:23:48.449Z,30.20
2018-05-29T20:26:18.314Z,30.00
2018-05-29T20:28:48.283Z,30.30
2018-05-29T20:31:17.542Z,30.30
2018-05-29T20:33:47.436Z,28.30
2018-05-29T20:36:18.219Z,27.60
2018-05-29T20:38:50.895Z,27.60
2018-05-29T20:41:21.047Z,26.80
2018-05-29T20:43:51.961Z,26.10
2018-05-29T20:46:21.460Z,26.00
2018-05-29T20:48:50.849Z,25.50
2018-05-29T20:51:20.453Z,25.40
2018-05-29T20:53:52.088Z,25.20
2018-05-29T20:56:22.755Z,25.10
2018-05-29T20:58:56.406Z,25.20
2018-05-29T21:01:29.157Z,24.80
2018-05-29T21:04:14.632Z,24.70
2018-05-29T21:12:21.415Z,24.90
2018-05-29T21:14:54.456Z,25.00
2018-05-29T21:17:24.192Z,24.90
2018-05-29T21:19:53.604Z,25.00
2018-05-29T21:22:23.410Z,25.00
2018-05-29T21:24:53.750Z,25.40
2018-05-29T21:27:22.881Z,25.50
2018-05-29T21:29:52.411Z,25.40
2018-05-29T21:32:21.751Z,25.50
2018-05-29T21:34:51.175Z,25.40
2018-05-29T21:37:21.034Z,25.40
2018-05-29T21:39:53.220Z,25.30
2018-05-29T21:42:23.111Z,25.10
2018-05-29T21:44:54.136Z,25.20
2018-05-29T21:47:26.584Z,25.10
2018-05-29T21:52:45.439Z,24.80
2018-05-29T21:55:15.156Z,24.70
2018-05-29T21:57:50.332Z,24.70
2018-05-29T22:00:23.647Z,24.90
2018-05-29T22:02:54.340Z,24.80
2018-05-29T22:05:25.282Z,24.90
2018-05-29T22:07:55.362Z,24.90
2018-05-29T22:10:32.335Z,25.10
2018-05-29T22:13:02.274Z,25.40
2018-05-29T22:15:39.617Z,25.60
2018-05-29T22:18:14.814Z,25.80
2018-05-29T22:21:00.789Z,26.10
2018-05-29T22:23:30.652Z,25.70
2018-05-29T22:26:02.418Z,25.40
2018-05-29T22:28:32.769Z,25.20
2018-05-29T22:31:06.034Z,25.00
2018-05-29T22:33:37.156Z,24.90
2018-05-29T22:38:41.856Z,24.70
2018-05-29T22:41:11.409Z,24.50
2018-05-29T22:46:19.560Z,24.60
2018-05-29T22:48:49.704Z,24.80
2018-05-29T22:51:23.312Z,24.80
2018-05-29T22:53:52.371Z,24.50
2018-05-29T22:56:22.697Z,24.50
2018-05-29T22:58:52.332Z,24.40
2018-05-29T23:01:25.459Z,24.40
2018-05-29T23:03:58.409Z,24.00
2018-05-29T23:06:27.950Z,23.70
2018-05-29T23:08:57.093Z,23.40
2018-05-29T23:11:29.170Z,22.90
2018-05-29T23:13:58.274Z,22.90
2018-05-29T23:16:28.331Z,22.70
2018-05-29T23:18:57.454Z,22.60
2018-05-29T23:21:31.832Z,22.50
2018-05-29T23:24:01.109Z,22.40
2018-05-29T23:26:32.740Z,22.20
2018-05-29T23:29:01.896Z,22.00
2018-05-29T23:31:31.202Z,21.90
2018-05-29T23:34:13.161Z,21.60
2018-05-29T23:36:42.455Z,21.60
2018-05-29T23:39:13.965Z,21.50
2018-05-29T23:41:44.287Z,21.30
2018-05-29T23:44:20.608Z,21.10
2018-05-29T23:46:50.768Z,21.10
2018-05-29T23:49:22.106Z,21.10
2018-05-29T23:51:52.703Z,20.90
2018-05-29T23:54:24.345Z,20.80
2018-05-29T23:56:58.841Z,20.60
